Time;durP1;ratioP1;P1;durP2;ratioP2;P2;SDS_P1;SDS_P2;PMS_P1;PMS_P2;Temp;Humidity;BMP_temperature;BMP_pressure;BME280_temperature;BME280_humidity;BME280_pressure;Samples;Min_cycle;Max_cycle;Signal;HPM_P1;HPM_P2
2021/04/09 00:02:27;;;;;;;18.40;11.32;;;4.20;99.90;;;;;;5039845;28;20082;-81
2021/04/09 00:04:53;;;;;;;15.07;10.73;;;4.20;99.90;;;;;;5039795;28;20100;-81
2021/04/09 00:07:20;;;;;;;19.52;11.45;;;4.20;99.90;;;;;;5038683;28;20112;-83
2021/04/09 00:09:46;;;;;;;21.83;11.15;;;4.20;99.90;;;;;;5040807;28;20132;-81
2021/04/09 00:12:14;;;;;;;18.05;10.80;;;4.20;99.90;;;;;;5038738;28;20132;-80
2021/04/09 00:14:41;;;;;;;16.30;10.60;;;4.20;99.90;;;;;;5040256;28;20109;-81
2021/04/09 00:17:07;;;;;;;14.80;10.88;;;4.10;99.90;;;;;;5039386;28;20057;-81
2021/04/09 00:19:34;;;;;;;15.40;10.85;;;4.10;99.90;;;;;;5040336;28;20049;-82
2021/04/09 00:22:01;;;;;;;19.55;11.48;;;4.10;99.90;;;;;;5041302;28;20115;-81
2021/04/09 00:24:27;;;;;;;17.30;12.40;;;4.00;99.90;;;;;;5040814;28;20128;-83
2021/04/09 00:26:54;;;;;;;19.83;11.75;;;3.90;99.90;;;;;;5042087;28;20100;-80
2021/04/09 00:29:22;;;;;;;18.77;11.23;;;3.90;99.90;;;;;;5042130;28;20144;-81
2021/04/09 00:31:48;;;;;;;19.17;12.90;;;3.80;99.90;;;;;;5040604;28;20069;-80
2021/04/09 00:34:14;;;;;;;22.25;12.48;;;3.80;99.90;;;;;;5042104;28;20072;-82
2021/04/09 00:36:41;;;;;;;19.77;12.13;;;3.80;99.90;;;;;;5042454;28;20076;-80
2021/04/09 00:39:09;;;;;;;21.42;12.60;;;3.80;99.90;;;;;;5038674;28;20140;-81
2021/04/09 00:41:37;;;;;;;20.23;12.32;;;3.80;99.90;;;;;;5039403;28;20197;-80
2021/04/09 00:44:06;;;;;;;23.77;13.35;;;3.70;99.90;;;;;;5039494;28;20077;-81
2021/04/09 00:46:34;;;;;;;23.35;12.77;;;3.70;99.90;;;;;;5044803;28;20053;-81
2021/04/09 00:49:00;;;;;;;25.80;13.20;;;3.70;99.90;;;;;;5054000;28;20050;-81
2021/04/09 00:51:27;;;;;;;21.98;12.20;;;3.50;99.90;;;;;;5052416;28;20395;-80
2021/04/09 00:53:54;;;;;;;22.13;12.30;;;3.50;99.90;;;;;;5038410;28;20121;-81
2021/04/09 00:56:26;;;;;;;23.63;12.32;;;3.50;99.90;;;;;;5036719;28;20180;-81
2021/04/09 00:58:52;;;;;;;20.23;12.32;;;3.50;99.90;;;;;;5037834;28;20138;-81
2021/04/09 01:01:19;;;;;;;22.30;12.13;;;3.40;99.90;;;;;;5036994;28;20080;-82
2021/04/09 01:03:46;;;;;;;21.25;13.20;;;3.40;99.90;;;;;;5036839;28;20529;-79
2021/04/09 01:06:13;;;;;;;19.13;12.05;;;3.40;99.90;;;;;;5035416;28;20487;-79
2021/04/09 01:08:39;;;;;;;19.27;12.00;;;3.30;99.90;;;;;;5035824;28;20053;-80
2021/04/09 01:11:07;;;;;;;21.17;11.90;;;3.20;99.90;;;;;;5038065;28;20136;-81
2021/04/09 01:13:33;;;;;;;19.00;11.98;;;3.20;99.90;;;;;;5038160;28;20045;-82
2021/04/09 01:16:00;;;;;;;18.90;11.63;;;3.30;99.90;;;;;;5038425;28;20748;-82
2021/04/09 01:18:31;;;;;;;20.65;11.73;;;3.20;99.90;;;;;;5039260;28;20637;-80
2021/04/09 01:21:07;;;;;;;23.20;13.32;;;3.20;99.90;;;;;;5040423;28;20482;-80
2021/04/09 01:23:55;;;;;;;19.55;11.77;;;3.20;99.90;;;;;;5041896;28;20509;-80
2021/04/09 01:26:58;;;;;;;17.58;11.18;;;3.10;99.90;;;;;;5041954;28;20128;-81
2021/04/09 01:29:44;;;;;;;18.92;11.77;;;3.10;99.90;;;;;;5042658;28;20109;-81
2021/04/09 01:32:13;;;;;;;19.38;11.18;;;3.10;99.90;;;;;;5043032;28;20053;-81
2021/04/09 01:34:45;;;;;;;17.60;11.50;;;3.10;99.90;;;;;;5045426;28;20049;-80
2021/04/09 01:37:15;;;;;;;16.88;11.05;;;3.10;99.90;;;;;;5048308;28;20132;-81
2021/04/09 01:39:46;;;;;;;22.17;12.20;;;3.00;99.90;;;;;;5047938;28;20084;-82
2021/04/09 01:42:14;;;;;;;17.38;11.20;;;3.10;99.90;;;;;;5038076;28;20129;-78
2021/04/09 01:44:46;;;;;;;18.55;11.45;;;3.10;99.90;;;;;;5036471;28;20524;-79
2021/04/09 01:47:14;;;;;;;17.30;10.85;;;3.20;99.90;;;;;;5037295;28;20057;-80
2021/04/09 01:49:43;;;;;;;18.67;11.68;;;3.20;99.90;;;;;;5037106;28;20046;-79
2021/04/09 01:52:11;;;;;;;18.05;11.05;;;3.20;99.90;;;;;;5036988;28;20088;-79
2021/04/09 01:54:39;;;;;;;18.00;11.50;;;3.20;99.90;;;;;;5039648;28;20081;-79
2021/04/09 01:57:08;;;;;;;17.90;10.50;;;3.30;99.90;;;;;;5039749;28;20109;-79
2021/04/09 01:59:37;;;;;;;22.83;11.55;;;3.30;99.90;;;;;;5040051;28;20490;-80
2021/04/09 02:02:05;;;;;;;24.98;11.98;;;3.30;99.90;;;;;;5039868;28;20060;-80
2021/04/09 02:04:34;;;;;;;17.98;11.00;;;3.40;99.90;;;;;;5039519;28;20101;-79
2021/04/09 02:07:02;;;;;;;17.90;11.10;;;3.40;99.90;;;;;;5039169;28;20135;-80
2021/04/09 02:09:31;;;;;;;15.60;10.98;;;3.40;99.90;;;;;;5040160;28;20077;-80
2021/04/09 02:11:59;;;;;;;18.83;11.13;;;3.40;99.90;;;;;;5040616;28;20556;-80
2021/04/09 02:14:28;;;;;;;17.88;11.00;;;3.40;99.90;;;;;;5039464;28;20049;-80
2021/04/09 02:16:56;;;;;;;20.73;11.35;;;3.40;99.90;;;;;;5040535;28;20136;-81
2021/04/09 02:19:24;;;;;;;14.55;11.15;;;3.50;99.90;;;;;;5042489;28;20425;-81
2021/04/09 02:21:52;;;;;;;16.63;11.40;;;3.50;99.90;;;;;;5041267;28;20072;-81
2021/04/09 02:24:18;;;;;;;19.13;11.07;;;3.60;99.90;;;;;;5042327;28;20136;-82
2021/04/09 02:26:45;;;;;;;14.77;10.82;;;3.60;99.90;;;;;;5040173;28;20152;-81
2021/04/09 02:29:11;;;;;;;22.25;11.48;;;3.70;99.90;;;;;;5039181;28;20092;-80
2021/04/09 02:31:39;;;;;;;17.15;11.10;;;3.80;99.90;;;;;;5038783;28;20208;-80
2021/04/09 02:34:06;;;;;;;17.42;11.07;;;3.80;99.90;;;;;;5038024;28;20132;-79
2021/04/09 02:36:33;;;;;;;17.67;10.65;;;3.80;99.90;;;;;;5037949;28;20049;-80
2021/04/09 02:39:05;;;;;;;16.25;10.90;;;3.80;99.90;;;;;;5040143;28;20077;-80
2021/04/09 02:41:35;;;;;;;16.63;11.07;;;3.90;99.90;;;;;;5039180;28;20132;-80
2021/04/09 02:44:03;;;;;;;18.23;11.45;;;3.90;99.90;;;;;;5038803;28;20076;-79
2021/04/09 02:46:36;;;;;;;17.75;11.35;;;3.90;99.90;;;;;;5035273;28;20085;-78
2021/04/09 02:49:07;;;;;;;17.73;10.98;;;3.80;99.90;;;;;;5036001;28;20469;-79
2021/04/09 02:51:35;;;;;;;18.63;11.35;;;3.80;99.90;;;;;;5035979;28;20132;-79
2021/04/09 02:54:03;;;;;;;17.25;11.55;;;3.80;99.90;;;;;;5036170;28;20081;-80
2021/04/09 02:56:31;;;;;;;17.80;11.80;;;3.80;99.90;;;;;;5036097;28;20057;-81
2021/04/09 02:59:00;;;;;;;15.50;11.15;;;3.80;99.90;;;;;;5037609;28;20084;-81
2021/04/09 03:01:28;;;;;;;20.73;12.35;;;3.80;99.90;;;;;;5039214;28;20124;-82
2021/04/09 03:03:56;;;;;;;19.02;12.30;;;3.80;99.90;;;;;;5037775;28;20445;-81
2021/04/09 03:06:23;;;;;;;20.52;12.60;;;3.80;99.90;;;;;;5037034;28;20552;-83
2021/04/09 03:08:49;;;;;;;16.25;11.43;;;3.80;99.90;;;;;;5037653;28;20484;-81
2021/04/09 03:11:17;;;;;;;21.63;11.43;;;3.80;99.90;;;;;;5037942;28;20054;-81
2021/04/09 03:13:43;;;;;;;22.27;12.65;;;3.80;99.90;;;;;;5037998;28;20089;-82
2021/04/09 03:16:13;;;;;;;16.35;11.65;;;3.90;99.90;;;;;;5037224;28;20085;-81
2021/04/09 03:18:41;;;;;;;17.33;11.23;;;3.90;99.90;;;;;;5037838;28;20128;-82
2021/04/09 03:21:08;;;;;;;20.63;12.00;;;3.90;99.90;;;;;;5037389;28;20132;-81
2021/04/09 03:23:34;;;;;;;14.68;10.52;;;3.90;99.90;;;;;;5037382;28;20514;-82
2021/04/09 03:26:00;;;;;;;17.98;10.98;;;3.90;99.90;;;;;;5036990;28;20057;-80
2021/04/09 03:28:28;;;;;;;17.42;11.02;;;3.90;99.90;;;;;;5036498;28;20136;-81
2021/04/09 03:30:54;;;;;;;16.33;11.35;;;3.90;99.90;;;;;;5040186;28;20171;-80
2021/04/09 03:33:22;;;;;;;19.75;11.55;;;4.00;99.90;;;;;;5039691;28;20168;-80
2021/04/09 03:35:49;;;;;;;19.20;11.95;;;4.00;99.90;;;;;;5037071;28;20152;-80
2021/04/09 03:38:16;;;;;;;17.48;11.52;;;4.00;99.90;;;;;;5035797;28;20045;-80
2021/04/09 03:40:42;;;;;;;18.48;11.63;;;4.00;99.90;;;;;;5035743;28;20129;-80
2021/04/09 03:43:10;;;;;;;15.00;10.90;;;4.00;99.90;;;;;;5036233;28;20053;-82
2021/04/09 03:45:38;;;;;;;15.80;10.65;;;3.90;99.90;;;;;;5037481;28;20081;-80
2021/04/09 03:48:04;;;;;;;19.73;11.20;;;4.00;99.90;;;;;;5042489;28;20113;-82
2021/04/09 03:50:31;;;;;;;20.42;12.30;;;4.00;99.90;;;;;;5041267;28;20128;-81
2021/04/09 03:52:58;;;;;;;19.70;12.20;;;4.00;99.90;;;;;;5036578;28;20132;-81
2021/04/09 03:55:24;;;;;;;20.00;11.73;;;4.00;99.90;;;;;;5038155;28;20051;-81
2021/04/09 03:57:51;;;;;;;20.15;11.68;;;4.10;99.90;;;;;;5037800;28;20124;-79
2021/04/09 04:00:18;;;;;;;20.90;13.25;;;4.10;99.90;;;;;;5036569;28;20183;-81
2021/04/09 04:02:46;;;;;;;18.60;12.40;;;4.10;99.90;;;;;;5049980;28;20080;-83
2021/04/09 04:07:42;;;;;;;17.63;11.82;;;4.10;99.90;;;;;;5004651;28;20050;-77
2021/04/09 04:10:10;;;;;;;17.55;11.52;;;4.10;99.90;;;;;;5013002;28;20052;-76
2021/04/09 04:12:36;;;;;;;17.95;12.15;;;4.20;99.90;;;;;;5014057;28;20129;-76
2021/04/09 04:15:03;;;;;;;22.00;12.30;;;4.20;99.90;;;;;;5013463;28;20099;-77
2021/04/09 04:17:29;;;;;;;18.75;12.20;;;4.20;99.90;;;;;;4993670;28;20085;-76
2021/04/09 04:19:57;;;;;;;20.00;13.07;;;4.20;99.90;;;;;;4993704;28;20094;-77
2021/04/09 04:22:23;;;;;;;17.48;11.98;;;4.20;99.90;;;;;;4993546;28;20050;-76
2021/04/09 04:24:50;;;;;;;20.02;12.43;;;4.20;99.90;;;;;;4993392;28;20050;-76
2021/04/09 04:27:16;;;;;;;21.27;12.60;;;4.30;99.90;;;;;;4993280;28;20052;-76
2021/04/09 04:29:42;;;;;;;19.00;11.25;;;4.20;99.90;;;;;;4993566;28;20078;-76
2021/04/09 04:32:09;;;;;;;22.83;13.38;;;4.30;99.90;;;;;;4993620;28;20050;-76
2021/04/09 04:34:35;;;;;;;18.33;12.27;;;4.20;99.90;;;;;;4993045;28;20145;-75
2021/04/09 04:37:03;;;;;;;19.92;12.38;;;4.20;99.90;;;;;;4993344;28;20081;-75
2021/04/09 04:39:29;;;;;;;22.00;13.20;;;4.30;99.90;;;;;;4993614;28;20142;-75
2021/04/09 04:41:56;;;;;;;20.42;13.40;;;4.20;99.90;;;;;;4993421;28;20077;-75
2021/04/09 04:44:22;;;;;;;20.55;12.23;;;4.30;99.90;;;;;;4993917;28;20050;-76
2021/04/09 04:46:48;;;;;;;19.95;12.57;;;4.30;99.90;;;;;;4993557;28;20458;-75
2021/04/09 04:49:15;;;;;;;18.25;11.70;;;4.30;99.90;;;;;;4994286;28;20081;-75
2021/04/09 04:51:41;;;;;;;20.67;12.95;;;4.30;99.90;;;;;;4994411;28;20129;-75
2021/04/09 04:54:09;;;;;;;19.08;13.00;;;4.30;99.90;;;;;;4999956;28;20165;-75
2021/04/09 04:56:35;;;;;;;18.48;12.55;;;4.40;99.90;;;;;;5002085;28;20141;-75
2021/04/09 04:59:01;;;;;;;21.73;12.73;;;4.30;99.90;;;;;;5005937;28;20214;-75
2021/04/09 05:01:28;;;;;;;20.90;12.65;;;4.40;99.90;;;;;;5018844;28;20133;-76
2021/04/09 05:03:54;;;;;;;24.67;12.50;;;4.40;99.90;;;;;;5020434;28;20068;-76
2021/04/09 05:06:20;;;;;;;17.40;12.93;;;4.30;99.90;;;;;;5018467;28;20077;-76
2021/04/09 05:08:47;;;;;;;21.30;12.98;;;4.30;99.90;;;;;;5017115;28;20105;-76
2021/04/09 05:11:14;;;;;;;20.45;13.13;;;4.40;99.90;;;;;;5018440;28;20061;-76
2021/04/09 05:13:41;;;;;;;22.08;13.27;;;4.40;99.90;;;;;;5002940;28;20043;-76
2021/04/09 05:16:07;;;;;;;20.05;13.48;;;4.50;99.90;;;;;;4999569;28;20079;-76
2021/04/09 05:18:33;;;;;;;23.73;13.20;;;4.50;99.90;;;;;;4999109;28;20118;-77
2021/04/09 05:21:00;;;;;;;21.98;12.90;;;4.50;99.90;;;;;;4998751;28;20137;-77
2021/04/09 05:23:26;;;;;;;22.58;13.02;;;4.60;99.90;;;;;;4998729;28;20133;-77
2021/04/09 05:25:53;;;;;;;25.10;13.30;;;4.70;99.90;;;;;;4998844;28;20050;-77
2021/04/09 05:28:20;;;;;;;19.65;13.00;;;4.70;99.90;;;;;;4998565;28;20062;-77
2021/04/09 05:30:46;;;;;;;20.15;12.63;;;4.80;99.90;;;;;;4998020;28;20085;-77
2021/04/09 05:33:12;;;;;;;20.60;12.60;;;4.80;99.90;;;;;;4998402;28;20057;-77
2021/04/09 05:35:39;;;;;;;20.25;13.30;;;4.90;99.90;;;;;;4998367;28;20096;-77
2021/04/09 05:38:05;;;;;;;20.63;13.38;;;5.00;99.90;;;;;;4998376;28;20080;-77
2021/04/09 05:40:31;;;;;;;19.30;12.55;;;5.10;99.90;;;;;;4998323;28;20147;-77
2021/04/09 05:42:58;;;;;;;20.77;13.57;;;5.20;99.90;;;;;;4998289;28;20129;-77
2021/04/09 05:45:26;;;;;;;18.75;12.55;;;5.20;99.90;;;;;;4998334;28;20056;-78
2021/04/09 05:47:53;;;;;;;17.00;11.95;;;5.30;99.90;;;;;;4998458;28;20053;-77
2021/04/09 05:50:19;;;;;;;18.05;12.32;;;5.40;99.90;;;;;;4998554;28;20462;-78
2021/04/09 05:52:47;;;;;;;19.80;13.32;;;5.50;99.90;;;;;;4997796;28;20078;-78
2021/04/09 05:55:14;;;;;;;17.92;11.85;;;5.50;99.90;;;;;;4998530;28;20096;-77
2021/04/09 05:57:41;;;;;;;19.77;12.88;;;5.60;99.90;;;;;;4998219;28;20133;-77
2021/04/09 06:00:12;;;;;;;18.42;11.95;;;5.70;99.90;;;;;;4998609;28;20105;-77
2021/04/09 06:02:39;;;;;;;17.77;12.20;;;5.80;99.90;;;;;;4998791;28;20050;-77
2021/04/09 06:05:07;;;;;;;18.55;11.90;;;5.90;99.90;;;;;;4994907;28;20101;-76
2021/04/09 06:07:33;;;;;;;17.00;12.23;;;6.00;99.90;;;;;;4973617;28;618036;-77
2021/04/09 06:09:59;;;;;;;18.85;11.85;;;6.10;99.90;;;;;;4995375;28;20140;-77
2021/04/09 06:12:26;;;;;;;17.40;11.73;;;6.30;99.90;;;;;;4996751;28;20074;-78
2021/04/09 06:14:52;;;;;;;17.48;12.38;;;6.40;99.90;;;;;;4999421;28;20141;-77
2021/04/09 06:17:19;;;;;;;16.50;10.73;;;6.50;99.90;;;;;;5006691;28;20133;-76
2021/04/09 06:19:47;;;;;;;17.77;11.80;;;6.60;99.90;;;;;;5000750;28;20568;-76
2021/04/09 06:22:14;;;;;;;19.15;12.38;;;6.70;99.90;;;;;;5008748;28;20469;-76
2021/04/09 06:24:40;;;;;;;15.18;11.93;;;6.80;99.90;;;;;;4996762;28;20081;-76
2021/04/09 06:27:08;;;;;;;18.67;12.00;;;6.80;99.90;;;;;;4995264;28;20133;-77
2021/04/09 06:29:34;;;;;;;18.23;12.85;;;6.80;99.90;;;;;;4995368;28;20129;-76
2021/04/09 06:32:00;;;;;;;18.05;11.70;;;6.90;99.90;;;;;;4995182;28;20101;-76
2021/04/09 06:34:27;;;;;;;20.23;11.65;;;6.90;99.90;;;;;;4995007;28;20129;-76
2021/04/09 06:36:54;;;;;;;15.73;11.98;;;7.00;99.90;;;;;;4995465;28;20129;-77
2021/04/09 06:39:20;;;;;;;16.92;12.07;;;7.00;99.90;;;;;;4995446;28;20485;-77
2021/04/09 06:41:47;;;;;;;18.52;11.35;;;7.10;99.90;;;;;;4994733;28;20081;-76
2021/04/09 06:44:13;;;;;;;18.38;11.73;;;7.20;99.90;;;;;;4995497;28;20141;-77
2021/04/09 06:46:41;;;;;;;17.90;11.60;;;7.30;99.90;;;;;;4994577;28;20050;-76
2021/04/09 06:49:07;;;;;;;17.92;11.85;;;7.60;99.90;;;;;;4994878;28;20053;-75
2021/04/09 06:51:34;;;;;;;18.33;11.25;;;7.60;99.90;;;;;;4994368;28;20141;-77
2021/04/09 06:54:02;;;;;;;17.02;11.38;;;7.70;99.90;;;;;;4994550;28;20141;-76
2021/04/09 06:56:30;;;;;;;18.88;11.27;;;7.80;99.90;;;;;;4994057;28;20113;-77
2021/04/09 06:58:56;;;;;;;22.45;11.65;;;7.80;99.90;;;;;;4994715;28;20054;-76
2021/04/09 07:01:24;;;;;;;16.00;11.48;;;8.00;99.90;;;;;;4995119;28;20141;-77
2021/04/09 07:03:53;;;;;;;17.05;11.27;;;8.10;99.90;;;;;;4995634;28;20046;-77
2021/04/09 07:06:20;;;;;;;17.73;11.98;;;8.30;99.90;;;;;;4994654;28;20114;-76
2021/04/09 07:08:46;;;;;;;17.40;11.55;;;8.40;99.90;;;;;;4994673;28;20133;-77
2021/04/09 07:11:13;;;;;;;16.52;10.90;;;8.70;99.90;;;;;;4994425;28;20057;-76
2021/04/09 07:13:50;;;;;;;15.23;11.07;;;9.10;99.90;;;;;;4994299;28;20141;-77
2021/04/09 07:16:16;;;;;;;15.32;10.88;;;9.50;99.90;;;;;;4993646;28;20108;-77
2021/04/09 07:18:47;;;;;;;14.73;11.13;;;9.90;99.90;;;;;;4994450;28;20141;-78
2021/04/09 07:21:24;;;;;;;19.20;11.43;;;10.10;99.90;;;;;;4994034;28;20054;-75
2021/04/09 07:24:17;;;;;;;24.98;15.60;;;10.00;99.90;;;;;;4994002;28;20129;-76
2021/04/09 07:26:46;;;;;;;21.83;10.90;;;10.10;99.90;;;;;;4984010;28;20404;-77
2021/04/09 07:29:38;;;;;;;16.15;12.20;;;9.90;99.90;;;;;;4991360;28;20289;-76
2021/04/09 07:32:32;;;;;;;20.92;12.32;;;10.00;99.90;;;;;;4993297;28;20184;-76
2021/04/09 07:35:02;;;;;;;17.30;11.63;;;10.10;99.90;;;;;;4994101;28;20090;-77
2021/04/09 07:37:30;;;;;;;19.73;13.20;;;10.30;99.90;;;;;;4993936;28;20050;-77
2021/04/09 07:39:58;;;;;;;17.02;11.95;;;10.40;99.90;;;;;;5001395;28;20109;-78
2021/04/09 07:42:37;;;;;;;22.20;12.10;;;10.50;99.90;;;;;;4996644;28;20482;-76
2021/04/09 07:45:09;;;;;;;16.30;9.73;;;10.40;99.90;;;;;;4995695;28;20074;-78
2021/04/09 07:47:36;;;;;;;14.85;10.63;;;10.50;99.90;;;;;;4994595;28;20042;-77
2021/04/09 07:50:06;;;;;;;23.63;14.82;;;10.70;99.90;;;;;;4991954;28;20133;-77
2021/04/09 07:52:41;;;;;;;17.38;10.57;;;10.90;99.90;;;;;;4981331;28;20170;-77
2021/04/09 07:55:13;;;;;;;20.77;14.48;;;11.10;99.90;;;;;;4992511;28;20056;-77
2021/04/09 07:57:41;;;;;;;21.42;11.18;;;11.30;99.90;;;;;;4993729;28;20121;-77
2021/04/09 08:00:18;;;;;;;16.60;10.48;;;11.80;99.90;;;;;;4992975;28;20133;-77
2021/04/09 08:02:45;;;;;;;17.00;10.30;;;12.30;99.90;;;;;;4986640;28;20698;-77
2021/04/09 08:05:15;;;;;;;15.27;10.65;;;12.60;99.90;;;;;;4974581;28;20514;-79
2021/04/09 08:07:41;;;;;;;17.40;10.10;;;13.10;99.90;;;;;;4975743;28;20058;-79
2021/04/09 08:10:09;;;;;;;22.95;11.05;;;13.30;99.90;;;;;;4975604;28;20141;-79
2021/04/09 08:12:37;;;;;;;20.17;10.18;;;13.20;99.90;;;;;;4974761;28;20046;-77
2021/04/09 08:15:24;;;;;;;15.63;9.93;;;13.10;99.90;;;;;;4973530;28;20329;-77
2021/04/09 08:18:01;;;;;;;16.85;10.40;;;13.00;99.90;;;;;;4974123;28;20133;-77
2021/04/09 08:20:30;;;;;;;12.38;9.32;;;13.00;99.90;;;;;;4974623;28;20750;-77
2021/04/09 08:23:00;;;;;;;14.15;9.80;;;13.40;99.90;;;;;;4973982;28;20504;-77
2021/04/09 08:25:27;;;;;;;14.10;9.35;;;13.60;99.90;;;;;;4973865;28;20050;-79
2021/04/09 08:27:54;;;;;;;15.07;9.80;;;13.70;99.90;;;;;;4973114;28;20415;-77
2021/04/09 08:30:23;;;;;;;11.73;9.20;;;13.70;99.90;;;;;;4973826;28;20222;-77
2021/04/09 08:32:53;;;;;;;13.68;9.63;;;13.70;99.90;;;;;;4973706;28;20054;-77
2021/04/09 08:35:20;;;;;;;14.43;9.60;;;13.80;99.90;;;;;;4974042;28;20101;-77
2021/04/09 08:37:48;;;;;;;17.15;9.25;;;14.00;99.90;;;;;;4973607;28;20055;-77
2021/04/09 08:40:15;;;;;;;14.45;10.10;;;14.30;99.90;;;;;;4973809;28;20113;-78
2021/04/09 08:42:42;;;;;;;15.02;10.05;;;14.50;99.90;;;;;;4973858;28;20137;-78
2021/04/09 08:45:09;;;;;;;16.10;9.75;;;14.90;99.90;;;;;;4973481;28;20046;-78
2021/04/09 08:47:37;;;;;;;13.75;9.50;;;15.40;99.90;;;;;;4973228;28;20143;-77
2021/04/09 08:50:08;;;;;;;13.20;9.35;;;15.20;99.90;;;;;;4973790;28;20054;-76
2021/04/09 08:52:39;;;;;;;20.70;10.20;;;15.10;99.90;;;;;;4973591;28;20480;-76
2021/04/09 08:55:06;;;;;;;12.75;9.65;;;15.40;99.90;;;;;;4973834;28;20050;-77
2021/04/09 08:57:34;;;;;;;18.08;9.55;;;15.60;99.90;;;;;;4973288;28;20129;-78
2021/04/09 09:00:14;;;;;;;15.27;10.10;;;16.20;99.90;;;;;;4973492;28;20434;-77
2021/04/09 09:02:47;;;;;;;14.80;9.00;;;16.60;99.40;;;;;;4973265;28;20051;-77
2021/04/09 09:05:15;;;;;;;14.93;9.25;;;16.50;99.90;;;;;;4973169;28;20462;-77
2021/04/09 09:07:58;;;;;;;20.02;10.18;;;16.30;99.90;;;;;;4973493;28;20455;-77
2021/04/09 09:10:58;;;;;;;17.58;10.35;;;16.30;98.90;;;;;;4973448;28;20051;-75
2021/04/09 09:13:31;;;;;;;15.20;9.60;;;16.10;98.00;;;;;;4973174;28;20133;-77
2021/04/09 09:16:11;;;;;;;12.95;9.27;;;15.80;97.90;;;;;;4973064;28;20130;-77
2021/04/09 09:18:46;;;;;;;15.57;9.38;;;15.90;97.40;;;;;;4973247;28;20422;-77
2021/04/09 09:21:24;;;;;;;13.48;9.30;;;15.60;97.10;;;;;;4973453;28;20046;-77
2021/04/09 09:23:52;;;;;;;17.75;9.88;;;15.60;96.30;;;;;;4973289;28;20055;-77
2021/04/09 09:26:20;;;;;;;13.55;9.05;;;15.40;96.60;;;;;;4972415;28;20082;-78
2021/04/09 09:28:47;;;;;;;12.80;8.27;;;15.50;97.30;;;;;;4972914;28;20093;-78
2021/04/09 09:31:35;;;;;;;13.27;8.80;;;15.60;96.10;;;;;;4973023;28;20134;-78
2021/04/09 09:34:35;;;;;;;11.63;8.57;;;15.60;96.30;;;;;;4968780;28;20047;-78
2021/04/09 09:37:06;;;;;;;14.40;8.55;;;15.50;96.90;;;;;;4972781;28;20047;-78
2021/04/09 09:39:38;;;;;;;15.25;9.00;;;15.20;96.80;;;;;;4974768;28;20061;-78
2021/04/09 09:42:06;;;;;;;13.50;8.32;;;14.90;96.50;;;;;;4976819;28;20081;-76
2021/04/09 09:44:35;;;;;;;16.55;8.77;;;14.70;97.10;;;;;;4976595;28;20051;-76
2021/04/09 09:47:07;;;;;;;14.73;9.05;;;14.60;97.40;;;;;;4976199;28;20058;-78
2021/04/09 09:49:36;;;;;;;14.18;8.25;;;14.50;97.30;;;;;;4976397;28;20058;-76
2021/04/09 09:52:04;;;;;;;14.13;9.18;;;14.40;97.70;;;;;;4976665;28;20058;-77
2021/04/09 09:54:32;;;;;;;14.73;8.82;;;14.30;98.60;;;;;;4976461;28;20134;-78
2021/04/09 09:57:20;;;;;;;14.60;8.80;;;14.40;98.60;;;;;;4977206;28;20054;-78
2021/04/09 09:59:47;;;;;;;12.57;8.38;;;14.40;97.90;;;;;;4977327;28;20129;-78
2021/04/09 10:02:19;;;;;;;12.38;8.27;;;14.50;98.80;;;;;;4977509;28;20133;-77
2021/04/09 10:04:45;;;;;;;13.30;9.25;;;14.60;98.80;;;;;;4977401;28;20490;-78
2021/04/09 10:07:12;;;;;;;13.77;9.35;;;14.70;99.30;;;;;;5030559;23;20064;-78
2021/04/09 10:09:38;;;;;;;16.55;8.40;;;14.50;98.50;;;;;;5038687;28;20041;-80
2021/04/09 10:12:05;;;;;;;13.10;8.02;;;14.40;98.40;;;;;;5042416;28;20099;-81
2021/04/09 10:14:32;;;;;;;14.18;8.45;;;14.40;98.70;;;;;;5042038;28;20076;-77
2021/04/09 10:16:59;;;;;;;14.07;8.40;;;14.30;98.60;;;;;;5038203;28;20536;-79
2021/04/09 10:19:27;;;;;;;16.50;9.50;;;14.20;99.20;;;;;;5037239;28;20513;-79
2021/04/09 10:21:54;;;;;;;13.00;8.88;;;14.30;99.80;;;;;;5039697;28;20053;-80
2021/04/09 10:24:21;;;;;;;13.75;7.90;;;14.20;99.30;;;;;;5037959;28;20072;-78
2021/04/09 10:26:53;;;;;;;15.07;8.43;;;14.20;99.60;;;;;;5036741;28;20061;-78
2021/04/09 10:29:23;;;;;;;12.18;8.00;;;14.20;99.80;;;;;;5036695;28;20072;-78
2021/04/09 10:31:51;;;;;;;13.32;9.35;;;14.10;99.90;;;;;;5036895;28;20070;-78
2021/04/09 10:34:22;;;;;;;12.10;8.55;;;14.10;99.90;;;;;;5037186;28;20054;-78
2021/04/09 10:36:49;;;;;;;13.43;8.25;;;13.90;99.60;;;;;;5037751;28;20049;-78
2021/04/09 10:39:17;;;;;;;17.75;9.32;;;13.90;99.90;;;;;;5040390;28;20049;-78
2021/04/09 10:41:46;;;;;;;15.05;8.63;;;13.90;99.90;;;;;;5041659;28;20049;-78
2021/04/09 10:44:17;;;;;;;13.18;9.13;;;13.80;99.90;;;;;;5040239;28;20054;-78
2021/04/09 10:46:45;;;;;;;13.10;8.50;;;13.90;99.90;;;;;;5036345;28;20371;-76
2021/04/09 10:49:14;;;;;;;14.30;9.15;;;14.00;99.90;;;;;;5038243;28;20045;-78
2021/04/09 10:51:43;;;;;;;14.27;9.00;;;14.20;99.90;;;;;;5038472;28;20049;-77
2021/04/09 10:54:11;;;;;;;18.02;9.30;;;14.30;99.90;;;;;;5034672;28;20087;-78
2021/04/09 10:56:38;;;;;;;11.68;8.60;;;14.40;99.90;;;;;;5034949;28;20057;-76
2021/04/09 10:59:08;;;;;;;11.77;8.48;;;14.60;99.90;;;;;;5035416;28;20437;-78
2021/04/09 11:01:35;;;;;;;12.80;8.35;;;14.60;99.90;;;;;;5035720;28;20045;-78
2021/04/09 11:04:02;;;;;;;16.25;8.20;;;14.70;99.90;;;;;;5035317;28;20049;-78
2021/04/09 11:06:29;;;;;;;12.18;8.65;;;14.70;99.90;;;;;;5035369;28;20469;-78
2021/04/09 11:09:04;;;;;;;12.35;7.95;;;14.60;99.90;;;;;;5035728;28;20112;-78
2021/04/09 11:11:33;;;;;;;12.20;8.50;;;14.70;99.90;;;;;;5036611;28;20088;-79
2021/04/09 11:14:02;;;;;;;12.10;8.27;;;14.90;99.90;;;;;;5038171;28;20092;-78
2021/04/09 11:16:28;;;;;;;11.95;8.23;;;15.10;99.90;;;;;;5038705;28;20046;-79
2021/04/09 11:18:56;;;;;;;12.40;7.50;;;15.10;99.90;;;;;;5037371;28;20148;-75
2021/04/09 11:21:43;;;;;;;11.68;7.20;;;15.10;99.90;;;;;;5036422;28;20049;-78
2021/04/09 11:24:11;;;;;;;11.95;7.88;;;15.10;99.90;;;;;;5036349;28;20055;-78
2021/04/09 11:26:38;;;;;;;10.90;7.85;;;15.20;99.80;;;;;;5036594;28;20071;-76
2021/04/09 11:29:09;;;;;;;9.65;7.43;;;15.40;99.90;;;;;;5036198;28;20080;-78
2021/04/09 11:31:36;;;;;;;10.68;7.43;;;15.60;99.80;;;;;;5036981;28;20054;-78
2021/04/09 11:34:07;;;;;;;11.35;7.75;;;15.80;99.70;;;;;;5039031;28;20502;-78
2021/04/09 11:36:42;;;;;;;11.37;7.90;;;15.80;99.30;;;;;;5034997;28;20085;-77
2021/04/09 11:39:13;;;;;;;12.93;7.70;;;15.70;99.40;;;;;;5034421;28;20049;-78
2021/04/09 11:41:41;;;;;;;11.93;7.85;;;15.70;99.30;;;;;;5035474;28;20148;-79
2021/04/09 11:44:27;;;;;;;11.52;7.60;;;15.60;98.70;;;;;;5037673;28;20050;-80
2021/04/09 11:46:54;;;;;;;11.48;7.30;;;15.60;99.90;;;;;;5036088;28;20050;-79
2021/04/09 11:49:29;;;;;;;9.88;7.50;;;15.70;99.20;;;;;;5036456;28;20045;-78
2021/04/09 11:52:00;;;;;;;15.02;8.20;;;15.80;98.90;;;;;;5033718;28;20053;-78
2021/04/09 11:54:35;;;;;;;10.23;7.15;;;15.80;99.50;;;;;;5034398;28;20096;-79
2021/04/09 11:57:02;;;;;;;12.80;7.80;;;15.80;98.40;;;;;;5034672;28;20440;-78
2021/04/09 11:59:34;;;;;;;12.82;7.75;;;15.70;98.20;;;;;;5035564;28;20136;-77
2021/04/09 12:02:20;;;;;;;13.20;8.07;;;15.80;99.00;;;;;;5032548;28;20053;-77
2021/04/09 12:04:47;;;;;;;10.52;7.40;;;15.70;98.00;;;;;;5032521;28;20046;-77
2021/04/09 12:07:16;;;;;;;11.85;8.52;;;15.80;98.90;;;;;;5033147;28;20478;-78
2021/04/09 12:09:44;;;;;;;12.50;7.85;;;15.80;98.00;;;;;;5033729;28;20045;-79
2021/04/09 12:12:12;;;;;;;10.35;7.70;;;15.60;98.00;;;;;;5033613;28;20127;-78
2021/04/09 12:14:41;;;;;;;11.02;8.10;;;15.70;98.40;;;;;;5032790;28;20413;-77
2021/04/09 12:17:09;;;;;;;11.90;7.25;;;15.70;98.60;;;;;;5033014;28;20057;-77
2021/04/09 12:19:36;;;;;;;13.50;7.65;;;15.90;98.70;;;;;;5033045;28;20061;-78
2021/04/09 12:22:03;;;;;;;15.25;8.18;;;15.70;97.50;;;;;;5034636;28;20550;-78
2021/04/09 12:24:30;;;;;;;10.10;7.78;;;15.60;98.50;;;;;;5033504;28;20593;-78
2021/04/09 12:26:57;;;;;;;13.50;7.75;;;15.50;98.10;;;;;;5034973;28;20132;-78
2021/04/09 12:29:23;;;;;;;13.32;7.88;;;15.40;97.80;;;;;;5032622;28;20583;-78
2021/04/09 12:31:50;;;;;;;10.40;8.13;;;15.10;97.30;;;;;;5033045;28;20049;-78
2021/04/09 12:34:18;;;;;;;11.23;7.13;;;15.10;98.50;;;;;;5033553;28;20256;-78
2021/04/09 12:36:45;;;;;;;11.02;7.72;;;15.20;99.10;;;;;;5033138;28;20132;-78
2021/04/09 12:39:13;;;;;;;12.75;7.85;;;15.20;99.10;;;;;;5033055;28;20404;-77
2021/04/09 12:41:39;;;;;;;10.43;7.90;;;15.20;98.10;;;;;;5032910;28;20081;-78
2021/04/09 12:44:08;;;;;;;11.88;7.88;;;15.10;98.60;;;;;;5033450;28;20049;-79
2021/04/09 12:46:35;;;;;;;13.57;7.80;;;15.00;98.40;;;;;;5032840;28;20187;-78
2021/04/09 12:49:01;;;;;;;13.65;8.02;;;15.00;99.10;;;;;;5033350;28;20045;-76